Abdelkader Bennacer

Olheiro - ES Setif
4 Abr 2027
Domingo
Processo

Personalidade

Adaptabilidade (17) Ambição (6) Controvérsia (5) Lealdade (9) Pressão (3) Profissionalismo (14) Espírito Esportivo (17) Temperamento (17)

Perfil

Estilo de Treinamento Democrático
Licença Continental B
Determinação 10
Gestão de Pessoas 7
Motivação 9
Disciplina 8
Satisfação no Trabalho
58%
Fadiga
0%
Função Olheiro
Salário 65.8K p/s
Contrato 14.03.2030

Desempenho

Comportamento Bom
Eficácia do Treinamento
25%
Desenvolvimento do Jogador
25%
Prevenção de Lesões
55%
Implementação Tática
50%

Eventos Recentes

Participou de uma reunião de recrutamento agora
Participou de uma reunião de recrutamento 7d atrás
Aniversário 7d atrás
Avaliou um jogador 7d atrás
Avaliou um jogador 7d atrás
Observou uma partida 7d atrás
Avaliou um jogador 7d atrás
Avaliou um jogador 7d atrás

Monitorando agora

136
Jogador Clube Status Habilidade Confiança Observado Última observação Último voto
Jack Currie Oxford United Ativo 137 / 111 40% 2 03.04.2027 -
Luca Connell Barnsley Ativo 128 / 104 40% 3 03.04.2027 -
Ognjen Gašević CSKA 1948 Ativo 114 / 113 40% 3 28.03.2027 -
Riley Owen Pergolettese Ativo 85 / 87 40% 1 28.03.2027 -
Alejandro Andrade Morelia Ativo 106 / 128 40% 1 27.03.2027 -
César González Queretaro Ativo 66 / 89 40% 1 25.03.2027 -
Valentín Díaz Temperley Ativo 91 / 96 40% 1 25.03.2027 -
Johnly Yfeko Exeter City Ativo 105 / 107 40% 2 24.03.2027 -
Zech Medley Fleetwood Town Ativo 89 / 103 40% 1 24.03.2027 -
Freddy Bernal Chelsea Ativo 81 / 115 40% 1 22.03.2027 -
Axel Afonso Atlético Tucumán Ativo 85 / 86 40% 1 22.03.2027 -
Ramahlwe Mphela Free State Stars Ativo 106 / 108 40% 1 21.03.2027 -
Solomon Tweh Al-Ra'ed Ativo 122 / 116 40% 3 19.03.2027 -
Gavin Kilkenny Swindon Town Ativo 98 / 112 40% 1 19.03.2027 -
Harry Williams Walsall Ativo 117 / 102 40% 2 18.03.2027 -
Vitalii Kholod Karpaty Ativo 112 / 106 40% 1 18.03.2027 -
Ryan Stirk Chesterfield Ativo 111 / 120 40% 1 16.03.2027 -
Khalfan Nader Al Shaab Ativo 85 / 124 40% 1 16.03.2027 -
Ihor Snurnitsyn Nyva Ativo 85 / 115 40% 1 13.03.2027 -
Siphamandla Ncanana Maritzburg United Ativo 110 / 121 40% 1 13.03.2027 -
Salvador Manríquez Dorados Ativo 97 / 87 40% 1 11.03.2027 -
Giovanni Corradini Ascoli Ativo 125 / 115 40% 1 11.03.2027 -
Erick Ngcobo Black Aces Ativo 116 / 93 40% 2 10.03.2027 -
Lebogang Erasmus Platinum Stars Ativo 99 / 124 40% 2 10.03.2027 -
Brandon Gómez San Telmo Ativo 71 / 75 40% 1 10.03.2027 -
Kiyani Zeggen AZ Ativo 135 / 145 40% 1 10.03.2027 -
Udoka Godwin-Malife Burton Albion Ativo 88 / 84 40% 1 08.03.2027 -
Liam Bennett Cambridge United Ativo 101 / 115 40% 1 08.03.2027 -
Lewis Freestone Stevenage Ativo 117 / 85 40% 1 06.03.2027 -
Mohammed Rabii Al Jazira Ativo 102 / 93 40% 2 05.03.2027 -
Charlie Webster Burton Albion Ativo 110 / 106 40% 2 05.03.2027 -
Fouad Kermiche Paradou Ativo 107 / 94 40% 2 04.03.2027 -
Kyle John Port Vale Ativo 111 / 98 40% 1 04.03.2027 -
Ignacio Coscio Huracán Ativo 96 / 80 40% 1 02.03.2027 -
Charlie Casper Oxford United Ativo 71 / 107 40% 1 02.03.2027 -
Osama Al-Thumayri Al-Fayha Ativo 63 / 53 40% 1 01.03.2027 -
Luis Mateus Atletico Bucaramanga Ativo 80 / 85 40% 1 01.03.2027 -
Jordan Brown Blackpool Ativo 103 / 84 40% 1 27.02.2027 -
Abdulrahman Hindi Al-Taawoun Ativo 102 / 116 40% 1 27.02.2027 -
Gilbani Samba Asante Kotoko Ativo 94 / 110 40% 1 26.02.2027 -
Thauan Lara Portimonense Ativo 113 / 105 40% 1 21.02.2027 -
Lucas Ness Notts County Ativo 108 / 115 40% 1 18.02.2027 -
Toby Sibbick Burton Albion Ativo 104 / 92 40% 2 10.02.2027 -
Goodman Mosele Chippa United Ativo 104 / 98 40% 1 10.02.2027 -
Merwane Khelif MC Alger Ativo 101 / 99 40% 2 09.02.2027 -
Jonata Machado Al-Ta'ee Ativo 112 / 116 40% 1 09.02.2027 -
Taha Yassine Tahar Paradou Ativo 115 / 88 40% 1 08.02.2027 -
Hamdi Akujobi Jomo Cosmos Ativo 106 / 109 40% 2 05.02.2027 -
Mohamed Azzi Dinamo Makhachkala Ativo 113 / 114 40% 1 04.02.2027 -
Alan Tsaraev Arsenal Tula Ativo 103 / 107 40% 2 24.01.2027 -
Mohammed Mahzari Al-Hilal Ativo 110 / 98 40% 2 23.01.2027 -
Jhon Palacios Orenburg Ativo 121 / 131 40% 1 19.01.2027 -
Saeed Baattia Al-Fateh Ativo 89 / 105 40% 1 18.01.2027 -
Jayden Sweeney Grimsby Town Ativo 104 / 118 40% 1 18.01.2027 -
Alen Kurtalić Floriana Ativo 107 / 104 40% 1 16.01.2027 -
Diego Murillo Málaga Ativo 124 / 120 40% 1 16.01.2027 -
Akos Bese Haladas Ativo 117 / 111 40% 1 14.01.2027 -
Wesley Tarxien Rainbows Ativo 97 / 91 40% 1 14.01.2027 -
Rio Adébísí Peterborough United Ativo 80 / 101 40% 2 12.01.2027 -
Ángel Zapata Tijuana Ativo 109 / 103 40% 1 12.01.2027 -
Kheireddine Benamrane Olympique Akbou Ativo 89 / 85 55% 1 01.01.2027 -
Connor Barrett Walsall Ativo 108 / 112 40% 1 01.01.2027 -
Mohamed Kanno Al-Hilal Perdido 112 / 113 40% 1 31.12.2026 -
Mpho Mathebula Bloemfontein Celtic Ativo 99 / 86 40% 1 30.12.2026 -
Nabil Alioui Damac Ativo 98 / 97 40% 2 29.12.2026 -
Simon Ramabu Polokwane City Ativo 104 / 113 40% 1 29.12.2026 -
Brahima Diarra Al Wahda Ativo 109 / 111 40% 1 27.12.2026 -
Csanád Vilmos Dénes Debrecen Ativo 119 / 120 40% 1 27.12.2026 -
Mohamed Zoungrana MC Alger Ativo 116 / 109 40% 1 26.12.2026 -
Darío Ramírez Real Sociedad Ativo 88 / 86 40% 1 26.12.2026 -
Siyanda Msani University of Pretoria Ativo 87 / 114 40% 1 25.12.2026 -
Rok Stojanovic NK Domzale Ativo 125 / 92 40% 1 25.12.2026 -
Mandla Vilakazi Black Aces Ativo 87 / 93 40% 2 23.12.2026 -
Vincent Harper Walsall Ativo 85 / 109 40% 1 23.12.2026 -
Đorđe Pantelić Spartak Kostroma Ativo 115 / 92 40% 1 22.12.2026 -
Iker Pozo Rodina Ativo 119 / 124 40% 1 22.12.2026 -
Dmitry Tsypchenko Torpedo Moscow Ativo 124 / 91 40% 2 21.12.2026 -
Raouf Benguit USM Alger Ativo 106 / 111 40% 3 17.12.2026 -
Valentín Vada Damac Ativo 121 / 118 40% 1 17.12.2026 -
Sinoxolo Kwayiba Chippa United Ativo 97 / 104 40% 1 14.12.2026 -
Bader Nasser Al-Fateh Ativo 104 / 94 40% 1 13.12.2026 -
Fahd Moufi Baltika Ativo 106 / 117 40% 1 13.12.2026 -
Malebogo Modise Polokwane City Ativo 120 / 116 40% 1 11.12.2026 -
Nawaf Al-Saadi Al-Khaleej Ativo 102 / 86 40% 2 10.12.2026 -
Abdulla Hamad Al Wahda Ativo 129 / 93 40% 1 10.12.2026 -
Juanjo Narváez Al-Ra'ed Ativo 122 / 120 40% 1 10.12.2026 -
Dramane Kamagaté USM Alger Ativo 113 / 106 40% 1 08.12.2026 -
Mackenzie Hunt Baniyas Ativo 118 / 93 40% 1 08.12.2026 -
Hamdi Labidi Olympique Akbou Ativo 91 / 110 40% 1 06.12.2026 -
Wandile Duba Bidvest Wits Ativo 89 / 113 40% 1 04.12.2026 -
Thabang Matuludi Polokwane City Ativo 110 / 114 40% 4 01.12.2026 -
Mohau Nkota Al-Ettifaq Ativo 113 / 123 40% 4 28.11.2026 -
Omar Shami Al-Ra'ed Ativo 89 / 97 40% 1 28.11.2026 -
Isaac Tshibangu Emirates Club Ativo 97 / 102 40% 2 27.11.2026 -
Yaseen Al-Zubaidi Al-Fateh Ativo 104 / 110 40% 1 27.11.2026 -
Mohammed Al-Dossary Al-Ra'ed Ativo 111 / 105 40% 2 26.11.2026 -
Robert Skubic NK Domzale Ativo 122 / 97 40% 1 24.11.2026 -
Igor Serrote Al Jazira Ativo 110 / 113 40% 1 23.11.2026 -
Faiz Mattoir Septemvri Ativo 97 / 126 40% 1 23.11.2026 -
Rúben Canedo Al Wahda Ativo 105 / 107 40% 1 21.11.2026 -
Jobson Al Dhafra Ativo 113 / 109 40% 1 19.11.2026 -
Fahad Al-Hamad Al-Ta'ee Ativo 114 / 77 40% 1 19.11.2026 -
Sultan Al-Ghannam Al-Nassr Ativo 130 / 94 40% 1 17.11.2026 -
Chancel Mbemba Al-Diriyah Ativo 130 / 123 40% 1 17.11.2026 -
Saymon Dibba Ativo 97 / 113 40% 1 16.11.2026 -
Hugo Al Wasl Ativo 130 / 102 40% 3 15.11.2026 -
Leandrinho Sharjah Ativo 124 / 123 40% 2 15.11.2026 -
Siaka Sidibé Al Wasl Ativo 123 / 105 40% 1 13.11.2026 -
Ibrahim Al Hammadi Al Shaab Ativo 110 / 91 40% 1 13.11.2026 -
Moussa N'Diaye Al Nasr Ativo 105 / 119 40% 1 11.11.2026 -
Bader Munshi Al-Ra'ed Ativo 80 / 105 40% 1 10.11.2026 -
Nasser Al Shamsi Al Shabab Ativo 132 / 124 40% 1 07.11.2026 -
Ali Hazazi Al-Qadisiyah Ativo 118 / 84 40% 1 05.11.2026 -
Ronaldo Maarman University of Pretoria Ativo 91 / 110 40% 1 01.11.2026 -
Younes El Bahraoui Al-Taawoun Ativo 107 / 126 40% 1 29.10.2026 -
Bruno Al Jazira Ativo 119 / 111 40% 2 27.10.2026 -
Agustín Ramírez Inter Ativo 111 / 96 40% 1 27.10.2026 -
Abdulmalik Al-Jaber Al-Nassr Ativo 86 / 116 40% 2 26.10.2026 -
Khaled Al-Bloushi Dibba Ativo 84 / 102 40% 1 24.10.2026 -
Valentín Fenoglio Estudiantes Ativo 125 / 101 40% 1 20.10.2026 -
Jean Charles Ahoua Al-Faisaly Ativo 93 / 102 40% 1 17.10.2026 -
Abdullah Matuq Al-Shabab Ativo 114 / 109 40% 1 15.10.2026 -
Andrey Mazurin Yenisey Ativo 87 / 102 40% 1 15.10.2026 -
Facundo Kruspzky Al Wahda Ativo 126 / 116 40% 1 11.10.2026 -
Abdelrahman Saleh Al Wasl Ativo 94 / 99 40% 1 09.10.2026 -
João Moreira Al Nasr Ativo 131 / 120 40% 1 09.10.2026 -
Brooklyn Poggenpoel Maritzburg United Ativo 124 / 125 40% 1 07.10.2026 -
Ahmed Al-Ghamdi Al-Ittihad Ativo 111 / 84 40% 1 07.10.2026 -
Abdullah Al-Yousif Al-Ra'ed Ativo 110 / 84 40% 1 08.09.2026 -
Khalifa Al-Hammadi Al Jazira Ativo 97 / 105 40% 1 08.09.2026 -
Faisal Al-Essa Ohod Ativo 64 / 68 40% 1 31.08.2026 -
Ramiro Buratti River Plate Ativo 87 / 80 40% 1 18.08.2026 -
Omar Jobe MC Oran Ativo 93 / 84 55% 1 10.08.2026 -
Moulay Abdelaziz MC Oran Ativo 94 / 81 55% 1 03.08.2026 Observar
Keaton Parks New York City Ativo 128 / 138 40% 1 01.08.2026 -
Marwan Ateya Al Ahly Ativo 124 / 126 40% 1 01.08.2026 -